Latest Weather Observations for Wynyard

IDT60801

Issued at 4:35 pm EST Saturday 26 July 2014 (issued every 30 minutes, with the page automatically refreshed every 10 minutes)

About weather observations | Map of weather stations | Latest weather observations for TAS | Other Formats
Station Details ID: 091107 Name: WYNYARD AIRPORT Lat: -41.00 Lon: 145.73 Height: 12.0 m
Data from the previous 72 hours. | See also: Recent months at Wynyard
Date/Time
EST
Temp
°C
App
Temp
°C
Dew
Point
Rel
Hum
%
Delta-T
°C
Wind Press
QNH
hPa
Press
MSL
hPa
Rain
since 9 am
mm
Dir
 
Spd
km/h
Gust
km/h
Spd
kts
Gust
kts
26/04:30pm 13.0 11.2 10.9 87 1.1 NW 11 17 6 9 1020.0 - 0.0
26/04:00pm 13.3 11.9 11.0 86 1.2 NW 9 13 5 7 1020.0 1020.0 0.0
26/03:30pm 12.9 12.0 11.3 90 0.8 N 7 9 4 5 1019.6 - 0.0
26/03:00pm 12.9 11.6 11.3 90 0.8 NNE 9 11 5 6 1019.4 1019.4 0.0
26/02:30pm 13.8 12.4 11.0 83 1.5 NNE 9 13 5 7 1019.3 - 0.0
26/02:00pm 13.0 11.7 11.1 88 1.0 NE 9 11 5 6 1019.2 1019.2 0.0
26/01:30pm 12.8 11.1 11.2 90 0.8 NNE 11 13 6 7 1019.3 - 0.0
26/01:00pm 13.3 11.0 10.3 82 1.6 NE 13 15 7 8 1019.5 1019.5 0.0
26/12:30pm 13.5 11.2 10.5 82 1.6 NNE 13 15 7 8 1019.7 - 0.0
26/12:00pm 13.5 11.6 10.5 82 1.6 NNE 11 15 6 8 1020.0 1020.0 0.0
26/11:46am 13.7 12.4 11.2 85 1.3 NNE 9 15 5 8 1020.2 - 0.0
26/11:30am 13.4 11.7 11.1 86 1.2 NNE 11 13 6 7 1020.3 - 0.0
26/11:00am 13.2 11.8 10.9 86 1.2 E 9 15 5 8 1020.4 1020.4 0.0
26/10:30am 12.5 11.5 10.9 90 0.8 SSE 7 11 4 6 1020.3 - 0.0
26/10:23am 12.6 11.2 11.0 90 0.8 SE 9 13 5 7 1020.3 - 0.0
26/10:00am 12.2 11.2 11.1 93 0.6 SE 7 9 4 5 1020.2 1020.2 0.0
26/09:37am 11.6 10.7 11.4 99 0.1 SE 7 11 4 6 1020.2 - 0.0
26/09:30am 11.3 10.3 11.1 99 0.1 SSE 7 9 4 5 1020.2 - 0.0
26/09:00am 10.6 9.1 10.4 99 0.1 SSW 9 11 5 6 1020.4 1020.4 12.0
26/08:30am 10.1 8.4 9.9 99 0.1 SSW 9 11 5 6 1020.2 - 12.0
26/08:13am 9.9 7.8 9.9 100 0.0 SW 11 13 6 7 1020.0 - 12.0
26/08:00am 9.4 7.6 9.3 99 0.0 SSW 9 11 5 6 1019.8 1019.8 12.0
26/07:43am 9.7 7.9 9.6 99 0.0 S 9 11 5 6 1019.5 - 12.0
26/07:30am 9.5 7.7 9.4 99 0.0 SSE 9 11 5 6 1019.3 - 12.0
26/07:00am 9.8 8.4 9.7 99 0.0 SE 7 11 4 6 1019.0 1019.0 12.0
26/06:56am 10.0 8.9 9.9 99 0.1 SE 6 9 3 5 1019.0 - 12.0
26/06:30am 10.5 8.5 10.3 99 0.1 SSE 11 15 6 8 1018.8 - 12.0
26/06:25am 10.6 8.7 10.4 99 0.1 SSE 11 13 6 7 1018.8 - 12.0
26/06:00am 10.9 8.7 10.7 99 0.1 SE 13 17 7 9 1018.9 1018.9 12.0
26/05:30am 10.8 9.3 10.6 99 0.1 SE 9 13 5 7 1018.7 - 12.0
26/05:00am 10.7 9.2 10.5 99 0.1 SSE 9 13 5 7 1018.4 1018.4 12.0
26/04:30am 10.5 9.0 10.5 100 0.0 SE 9 13 5 7 1018.2 - 12.0
26/04:00am 10.3 8.7 10.1 99 0.1 SSE 9 11 5 6 1018.2 1018.2 12.0
26/03:30am 10.8 9.4 10.8 100 0.0 ESE 9 11 5 6 1018.1 - 12.0
26/03:00am 10.7 9.2 10.7 100 0.0 SSE 9 13 5 7 1018.0 1018.0 12.0
26/02:30am 10.9 9.1 10.9 100 0.0 SE 11 15 6 8 1017.9 - 12.0
26/02:19am 10.6 9.7 10.6 100 0.0 SE 6 13 3 7 1017.9 - 12.0
26/02:03am 10.1 8.5 10.1 100 0.0 SSE 9 13 5 7 1017.9 - 12.0
26/02:00am 10.1 8.1 10.1 100 0.0 SSE 11 13 6 7 1017.9 1017.9 12.0
26/01:36am 10.1 10.1 9.9 99 0.1 CALM 0 0 0 0 1017.9 - 11.8
26/01:30am 10.1 10.1 9.9 99 0.1 CALM 0 0 0 0 1017.9 - 11.8
26/01:00am 10.1 8.4 9.9 99 0.1 SE 9 13 5 7 1017.9 1017.9 11.0
26/12:53am 10.2 7.8 10.0 99 0.1 SE 13 15 7 8 1017.9 - 10.6
26/12:30am 10.7 7.7 10.7 100 0.0 ESE 17 20 9 11 1017.9 - 9.6
26/12:13am 10.7 7.7 10.7 100 0.0 ESE 17 22 9 12 1018.0 - 7.8
26/12:01am 11.1 8.6 11.1 100 0.0 E 15 20 8 11 1018.1 - 7.2
26/12:00am 11.1 8.6 11.1 100 0.0 E 15 20 8 11 1018.1 1018.1 7.2
 
Date/Time
EST
Temp
°C
App
Temp
°C
Dew
Point
Rel
Hum
%
Delta-T
°C
Wind Press
QNH
hPa
Press
MSL
hPa
Rain
since 9 am
mm
Dir
 
Spd
km/h
Gust
km/h
Spd
kts
Gust
kts
25/11:38pm 11.2 9.5 11.2 100 0.0 ESE 11 17 6 9 1017.9 - 7.2
25/11:30pm 11.2 9.1 11.2 100 0.0 ESE 13 15 7 8 1017.9 - 6.8
25/11:16pm 11.3 9.2 11.3 100 0.0 ESE 13 17 7 9 1017.9 - 5.8
25/11:08pm 11.2 8.7 11.2 100 0.0 ESE 15 20 8 11 1017.9 - 5.4
25/11:00pm 11.1 8.6 10.9 99 0.1 ESE 15 20 8 11 1017.9 1017.9 5.0
25/10:30pm 11.2 9.1 11.0 99 0.1 SE 13 19 7 10 1017.8 - 4.6
25/10:16pm 11.2 9.4 11.0 99 0.1 SE 11 15 6 8 1018.0 - 4.0
25/10:10pm 11.2 9.8 11.0 99 0.1 SE 9 13 5 7 1018.0 - 4.0
25/10:00pm 11.3 9.6 11.1 99 0.1 SE 11 17 6 9 1018.0 1018.0 3.6
25/09:55pm 11.4 9.3 11.2 99 0.1 ESE 13 17 7 9 1018.0 - 3.0
25/09:43pm 11.5 9.4 11.3 99 0.1 ESE 13 19 7 10 1017.8 - 2.2
25/09:39pm 11.5 9.4 11.3 99 0.1 ESE 13 19 7 10 1017.8 - 2.2
25/09:30pm 11.4 8.9 11.2 99 0.1 SE 15 19 8 10 1017.7 - 2.2
25/09:26pm 11.4 9.3 11.2 99 0.1 SE 13 19 7 10 1017.7 - 2.2
25/09:00pm 11.5 9.4 11.3 99 0.1 SE 13 17 7 9 1017.6 1017.6 2.2
25/08:30pm 11.7 9.3 11.5 99 0.1 ESE 15 19 8 10 1017.6 - 2.2
25/08:00pm 11.8 9.8 11.6 99 0.1 E 13 17 7 9 1017.1 1017.1 2.2
25/07:30pm 11.8 10.6 11.6 99 0.1 SE 9 11 5 6 1017.4 - 2.2
25/07:19pm 11.7 10.8 11.5 99 0.1 SE 7 11 4 6 1017.2 - 2.2
25/07:00pm 11.5 10.8 11.3 99 0.1 SSE 6 7 3 4 1016.8 1016.9 2.2
25/06:35pm 11.5 10.6 11.3 99 0.1 SSE 7 11 4 6 1016.6 - 2.2
25/06:30pm 11.4 11.0 11.2 99 0.1 SSE 4 9 2 5 1016.5 - 2.2
25/06:27pm 11.4 11.4 11.2 99 0.1 ESE 2 7 1 4 1016.5 - 2.2
25/06:00pm 12.0 11.2 11.8 99 0.1 E 7 11 4 6 1016.3 1016.4 2.2
25/05:30pm 11.9 10.0 11.7 99 0.1 E 13 19 7 10 1016.0 - 2.2
25/05:11pm 12.0 9.7 11.8 99 0.1 ESE 15 20 8 11 1015.9 - 2.2
25/05:00pm 12.0 10.1 11.8 99 0.1 E 13 19 7 10 1015.8 1015.9 2.2
25/04:57pm 12.1 10.2 11.9 99 0.1 E 13 19 7 10 1015.8 - 2.2
25/04:30pm 12.2 10.0 12.0 99 0.1 E 15 20 8 11 1015.7 - 1.8
25/04:00pm 12.1 10.2 11.8 98 0.2 E 13 20 7 11 1015.5 1015.6 1.8
25/03:30pm 12.1 10.6 11.8 98 0.2 E 11 17 6 9 1015.4 - 1.8
25/03:26pm 12.1 10.2 11.8 98 0.2 E 13 17 7 9 1015.3 - 1.8
25/03:00pm 12.4 10.2 12.1 98 0.2 E 15 22 8 12 1015.2 1015.3 1.8
25/02:54pm 12.4 10.2 12.1 98 0.2 E 15 24 8 13 1015.2 - 1.8
25/02:38pm 12.2 11.5 12.0 99 0.1 E 7 15 4 8 1015.1 - 1.8
25/02:30pm 11.9 9.9 11.6 98 0.2 E 13 20 7 11 1015.2 - 1.8
25/02:13pm 12.1 9.3 11.3 95 0.4 E 17 24 9 13 1015.1 - 1.6
25/02:00pm 12.1 8.7 11.2 94 0.5 E 20 30 11 16 1015.0 1015.1 1.6
25/01:30pm 12.4 9.4 10.5 88 1.0 ESE 17 26 9 14 1015.1 - 1.6
25/01:22pm 12.5 10.2 10.6 88 1.0 E 13 20 7 11 1015.2 - 1.6
25/01:00pm 12.4 9.3 10.3 87 1.1 E 17 30 9 16 1015.3 1015.4 1.6
25/12:53pm 12.5 9.1 11.2 92 0.7 E 20 28 11 15 1015.3 - 1.6
25/12:31pm 12.2 8.7 10.8 91 0.7 E 20 28 11 15 1015.4 - 1.6
25/12:30pm 12.2 8.7 10.8 91 0.7 E 20 28 11 15 1015.5 - 1.6
25/12:24pm 12.4 8.6 11.1 92 0.7 ESE 22 33 12 18 1015.5 - 1.6
25/12:13pm 12.2 8.4 11.1 93 0.6 ESE 22 28 12 15 1015.7 - 1.6
25/12:00pm 11.8 7.1 10.7 93 0.6 ESE 26 35 14 19 1015.8 1015.9 1.6
25/11:33am 11.6 7.3 10.8 95 0.4 ESE 24 33 13 18 1016.1 - 1.6
25/11:30am 11.5 7.2 10.6 94 0.5 ESE 24 33 13 18 1016.2 - 1.2
25/11:23am 11.4 7.8 10.6 95 0.4 ESE 20 28 11 15 1016.2 - 1.2
25/11:00am 11.9 8.8 10.3 90 0.8 E 17 26 9 14 1016.4 1016.5 1.2
25/10:30am 11.6 8.1 10.8 95 0.4 ESE 20 28 11 15 1016.6 - 1.2
25/10:00am 11.3 7.8 10.8 97 0.3 ESE 20 28 11 15 1016.4 1016.5 1.2
25/09:54am 11.4 7.9 10.9 97 0.3 ESE 20 26 11 14 1016.4 - 1.0
25/09:37am 11.4 7.5 10.9 97 0.3 ESE 22 28 12 15 1016.3 - 1.0
25/09:30am 11.4 7.9 10.8 96 0.3 ESE 20 32 11 17 1016.4 - 1.0
25/09:25am 11.5 8.2 10.9 96 0.3 ESE 19 26 10 14 1016.4 - 1.0
25/09:09am 11.5 8.6 10.9 96 0.3 ESE 17 22 9 12 1016.3 - 0.8
25/09:00am 11.6 8.6 10.7 94 0.5 ESE 17 24 9 13 1016.2 1016.3 1.8
25/08:30am 11.6 8.3 11.0 96 0.3 ESE 19 26 10 14 1015.8 - 1.8
25/08:00am 11.4 8.2 11.2 99 0.1 ESE 19 26 10 14 1015.7 1015.8 1.8
25/07:30am 11.3 7.1 11.1 99 0.1 ESE 24 30 13 16 1015.6 - 1.6
25/07:00am 11.2 7.9 11.0 99 0.1 ESE 19 22 10 12 1015.6 1015.7 0.8
25/06:30am 11.3 8.4 11.1 99 0.1 ESE 17 22 9 12 1015.4 - 0.4
25/06:09am 11.5 7.9 10.7 95 0.4 ESE 20 26 11 14 1015.1 - 0.2
25/06:00am 11.6 8.1 10.8 95 0.4 ESE 20 28 11 15 1015.2 1015.3 0.0
25/05:30am 11.7 8.6 10.3 91 0.7 ESE 17 26 9 14 1015.2 - 0.0
25/05:00am 11.9 8.2 10.3 90 0.8 ESE 20 26 11 14 1015.1 1015.2 0.0
25/04:30am 11.9 8.8 10.3 90 0.8 ESE 17 24 9 13 1015.1 - 0.0
25/04:00am 12.1 9.1 10.5 90 0.8 E 17 26 9 14 1015.2 1015.3 0.0
25/03:30am 11.9 9.6 10.5 91 0.7 ESE 13 19 7 10 1015.2 - 0.0
25/03:00am 12.0 9.4 10.7 92 0.7 ESE 15 20 8 11 1015.2 1015.3 0.0
25/02:30am 11.8 8.8 10.5 92 0.7 ESE 17 20 9 11 1015.0 - 0.0
25/02:00am 11.9 8.5 10.6 92 0.7 ESE 19 24 10 13 1015.2 1015.3 0.0
25/01:30am 11.8 9.1 10.4 91 0.7 ESE 15 20 8 11 1015.3 - 0.0
25/01:11am 12.0 8.9 10.4 90 0.8 ESE 17 24 9 13 1015.2 - 0.0
25/01:00am 12.2 8.6 10.4 89 0.9 ESE 20 28 11 15 1015.3 1015.4 0.0
25/12:37am 12.1 8.0 10.0 87 1.1 ESE 22 30 12 16 1015.4 - 0.0
25/12:30am 12.2 8.1 10.1 87 1.1 ESE 22 30 12 16 1015.5 - 0.0
25/12:00am 12.3 8.7 10.0 86 1.2 E 19 26 10 14 1015.8 1015.9 0.0
 
Date/Time
EST
Temp
°C
App
Temp
°C
Dew
Point
Rel
Hum
%
Delta-T
°C
Wind Press
QNH
hPa
Press
MSL
hPa
Rain
since 9 am
mm
Dir
 
Spd
km/h
Gust
km/h
Spd
kts
Gust
kts
24/11:30pm 12.3 8.1 9.9 85 1.2 ESE 22 30 12 16 1015.8 - 0.0
24/11:00pm 12.1 7.9 9.8 86 1.2 ESE 22 30 12 16 1015.9 1016.0 0.0
24/10:30pm 12.1 7.1 9.7 85 1.2 ESE 26 33 14 18 1016.0 - 0.0
24/10:00pm 12.1 7.8 9.5 84 1.3 ESE 22 30 12 16 1016.0 1016.1 0.0
24/09:50pm 12.1 8.2 9.3 83 1.4 ESE 20 32 11 17 1016.2 - 0.0
24/09:30pm 12.2 7.1 9.2 82 1.5 ESE 26 37 14 20 1016.0 - 0.0
24/09:00pm 12.4 6.8 8.7 78 1.8 ESE 28 35 15 19 1016.2 1016.3 0.0
24/08:30pm 12.1 8.6 8.8 80 1.6 ESE 17 24 9 13 1016.3 - 0.0
24/08:00pm 12.3 8.4 8.8 79 1.7 ESE 19 26 10 14 1016.2 1016.3 0.0
24/07:30pm 12.2 8.8 9.0 81 1.6 ESE 17 22 9 12 1016.1 - 0.0
24/07:00pm 12.3 8.9 9.3 82 1.5 SE 17 22 9 12 1016.0 1016.1 0.0
24/06:30pm 12.3 9.0 9.7 84 1.3 ESE 17 22 9 12 1016.0 - 0.0
24/06:00pm 12.1 9.3 10.0 87 1.1 ESE 15 20 8 11 1016.1 1016.2 0.0
24/05:30pm 12.0 8.5 10.1 88 1.0 ESE 19 24 10 13 1016.1 - 0.0
24/05:00pm 11.9 8.7 10.0 88 1.0 ESE 17 22 9 12 1016.1 1016.2 0.0
24/04:30pm 12.2 8.9 9.6 84 1.3 E 17 24 9 13 1016.1 - 0.0
24/04:00pm 12.7 8.9 9.7 82 1.5 E 20 26 11 14 1015.9 1016.0 0.0
24/03:30pm 12.6 8.3 9.2 80 1.7 ESE 22 30 12 16 1015.9 - 0.0
24/03:00pm 12.5 7.7 9.0 79 1.8 ESE 24 33 13 18 1015.8 1015.9 0.0
24/02:30pm 12.8 7.9 8.5 75 2.1 E 24 32 13 17 1016.0 - 0.0
24/02:00pm 13.2 8.4 8.9 75 2.2 E 24 35 13 19 1016.2 1016.3 0.0
24/01:30pm 12.5 8.4 8.8 78 1.8 E 20 32 11 17 1016.7 - 0.0
24/01:00pm 12.6 7.8 8.7 77 1.9 E 24 35 13 19 1017.2 1017.2 0.0
24/12:30pm 12.5 7.6 8.4 76 2.0 E 24 33 13 18 1017.3 - 0.0
24/12:00pm 12.0 7.1 8.3 78 1.8 E 24 33 13 18 1017.8 1017.8 0.0
24/11:30am 12.5 7.1 8.0 74 2.2 E 26 39 14 21 1018.0 - 0.0
24/11:00am 11.7 7.1 8.0 78 1.8 E 22 32 12 17 1018.4 1018.4 0.0
24/10:30am 11.7 7.0 7.6 76 2.0 E 22 33 12 18 1018.8 - 0.0
24/10:00am 11.4 5.9 7.7 78 1.8 ESE 26 35 14 19 1018.6 1018.6 0.0
24/09:30am 11.0 6.7 7.9 81 1.5 ESE 20 26 11 14 1018.7 - 0.0
24/09:00am 10.5 6.1 7.4 81 1.5 ESE 20 24 11 13 1018.7 1018.7 0.0
24/08:30am 10.1 6.2 7.0 81 1.5 SE 17 24 9 13 1018.8 - 0.0
24/08:00am 9.7 5.4 6.8 82 1.4 ESE 19 24 10 13 1018.7 1018.7 0.0
24/07:30am 9.4 5.8 6.8 84 1.2 ESE 15 22 8 12 1018.7 - 0.0
24/07:00am 8.8 5.1 6.2 84 1.2 SE 15 20 8 11 1018.7 1018.7 0.0
24/06:30am 8.8 5.9 6.6 86 1.0 SE 11 15 6 8 1018.6 - 0.0
24/06:00am 7.7 5.3 7.0 95 0.3 SSE 9 13 5 7 1018.5 1018.5 0.0
24/05:30am 6.8 5.1 5.7 93 0.5 W 4 9 2 5 1018.5 - 0.0
24/05:00am 7.9 5.0 6.4 90 0.7 SE 11 17 6 9 1018.6 1018.6 0.0
24/04:30am 8.0 4.7 6.5 90 0.7 SE 13 17 7 9 1018.6 - 0.0
24/04:00am 7.3 4.8 6.4 94 0.4 SE 9 11 5 6 1019.0 1019.0 0.0
24/03:30am 7.4 4.6 6.8 96 0.3 SSE 11 13 6 7 1019.1 - 0.0
24/03:00am 7.9 5.1 7.0 94 0.4 SSE 11 13 6 7 1019.3 1019.3 0.0
24/02:30am 8.0 4.9 7.4 96 0.3 SE 13 17 7 9 1019.4 - 0.0
24/02:00am 7.7 4.3 7.6 99 0.0 SSE 15 19 8 10 1019.5 1019.5 0.0
24/01:30am 7.3 4.2 7.2 99 0.0 SSE 13 17 7 9 1019.7 - 0.0
24/01:00am 5.4 4.3 5.3 99 0.0 CALM 0 6 0 3 1019.9 1019.9 0.0
24/12:34am 5.0 2.7 4.9 99 0.0 WNW 6 7 3 4 1020.0 - 0.0
24/12:30am 4.9 3.0 4.8 99 0.0 W 4 7 2 4 1020.1 - 0.0
24/12:00am 4.3 1.7 4.2 99 0.0 WSW 7 9 4 5 1020.5 1020.5 0.0
 
Date/Time
EST
Temp
°C
App
Temp
°C
Dew
Point
Rel
Hum
%
Delta-T
°C
Wind Press
QNH
hPa
Press
MSL
hPa
Rain
since 9 am
mm
Dir
 
Spd
km/h
Gust
km/h
Spd
kts
Gust
kts
23/11:41pm 4.4 1.4 4.3 99 0.0 W 9 9 5 5 1020.7 - 0.0
23/11:30pm 4.5 1.6 4.4 99 0.0 W 9 11 5 6 1020.8 - 0.0
23/11:06pm 4.0 1.3 3.9 99 0.0 WNW 7 7 4 4 1020.8 - 0.0
23/11:00pm 4.2 1.8 4.1 99 0.0 W 6 7 3 4 1020.9 1020.9 0.0
23/10:30pm 3.7 1.0 3.6 99 0.0 W 7 9 4 5 1021.2 - 0.0
23/10:00pm 3.9 0.8 3.8 99 0.0 W 9 11 5 6 1021.5 1021.5 0.0
23/09:30pm 3.0 -0.2 2.9 99 0.0 WNW 9 11 5 6 1021.5 - 0.0
23/09:28pm 3.1 0.3 3.0 99 0.0 WNW 7 11 4 6 1021.5 - 0.0
23/09:04pm 2.6 -0.7 2.5 99 0.0 W 9 9 5 5 1021.6 - 0.0
23/09:03pm 2.6 -0.7 2.5 99 0.0 W 9 9 5 5 1021.6 - 0.0
23/09:00pm 2.6 -0.3 2.5 99 0.0 W 7 9 4 5 1021.6 1021.6 0.0
23/08:43pm 2.7 -0.2 2.6 99 0.0 W 7 9 4 5 1021.6 - 0.0
23/08:30pm 3.3 0.1 3.2 99 0.0 W 9 11 5 6 1021.6 - 0.0
23/08:24pm 3.3 0.1 3.2 99 0.0 W 9 11 5 6 1021.6 - 0.0
23/08:00pm 3.5 0.7 3.4 99 0.0 W 7 9 4 5 1021.4 1021.4 0.0
23/07:30pm 3.7 1.2 3.6 99 0.0 WSW 6 7 3 4 1021.4 - 0.0
23/07:00pm 5.0 2.7 4.9 99 0.0 W 6 7 3 4 1021.4 1021.4 0.0
23/06:47pm 4.1 1.5 4.0 99 0.0 WSW 7 7 4 4 1021.4 - 0.0
23/06:46pm 4.2 1.6 4.1 99 0.0 WSW 7 9 4 5 1021.4 - 0.0
23/06:30pm 4.0 2.7 3.9 99 0.0 CALM 0 4 0 2 1021.3 - 0.0
23/06:27pm 4.2 2.9 4.1 99 0.0 CALM 0 0 0 0 1021.2 - 0.0
23/06:00pm 5.0 2.5 4.9 99 0.0 S 7 9 4 5 1021.1 1021.1 0.0
23/05:30pm 5.9 4.2 5.8 99 0.0 SSE 4 7 2 4 1021.1 - 0.0
23/05:00pm 9.1 8.7 8.2 94 0.4 CALM 0 0 0 0 1021.2 1021.2 0.0

Other Formats:

Comma delimited format used in spreadsheet applications
http://www.bom.gov.au/fwo/IDT60801/IDT60801.95957.axf

JavaScript Object Notation format (JSON) in row-major order
http://www.bom.gov.au/fwo/IDT60801/IDT60801.95957.json